sensor_id;sensor_type;location;lat;lon;timestamp;pressure;altitude;pressure_sealevel;temperature;humidity
57290;BME280;43523;53.022;-1.178;2022-10-15T00:00:52;99691.92;;;8.22;100.00
57290;BME280;43523;53.022;-1.178;2022-10-15T00:01:54;99694.02;;;8.56;100.00
57290;BME280;43523;53.022;-1.178;2022-10-15T00:02:56;99692.87;;;9.00;100.00
57290;BME280;43523;53.022;-1.178;2022-10-15T00:03:59;99696.92;;;8.60;100.00
57290;BME280;43523;53.022;-1.178;2022-10-15T00:05:01;99696.44;;;8.37;100.00
57290;BME280;43523;53.022;-1.178;2022-10-15T00:06:06;99698.05;;;8.47;100.00
57290;BME280;43523;53.022;-1.178;2022-10-15T00:07:10;99694.60;;;8.58;100.00
57290;BME280;43523;53.022;-1.178;2022-10-15T00:08:12;99695.48;;;8.74;100.00
57290;BME280;43523;53.022;-1.178;2022-10-15T00:09:15;99693.42;;;8.68;100.00
57290;BME280;43523;53.022;-1.178;2022-10-15T00:10:17;99693.58;;;8.86;100.00
57290;BME280;43523;53.022;-1.178;2022-10-15T00:11:21;99694.91;;;9.43;100.00
57290;BME280;43523;53.022;-1.178;2022-10-15T00:12:24;99690.27;;;9.02;100.00
57290;BME280;43523;53.022;-1.178;2022-10-15T00:13:26;99687.87;;;9.07;100.00
57290;BME280;43523;53.022;-1.178;2022-10-15T00:14:30;99685.96;;;9.18;100.00
57290;BME280;43523;53.022;-1.178;2022-10-15T00:15:34;99680.80;;;9.00;100.00
57290;BME280;43523;53.022;-1.178;2022-10-15T00:16:37;99681.06;;;9.22;100.00
57290;BME280;43523;53.022;-1.178;2022-10-15T00:17:40;99679.56;;;9.31;100.00
57290;BME280;43523;53.022;-1.178;2022-10-15T00:18:43;99681.55;;;9.32;100.00
57290;BME280;43523;53.022;-1.178;2022-10-15T00:19:47;99679.93;;;8.87;100.00
57290;BME280;43523;53.022;-1.178;2022-10-15T00:20:49;99679.39;;;8.64;100.00
57290;BME280;43523;53.022;-1.178;2022-10-15T00:21:51;99682.57;;;9.02;100.00
57290;BME280;43523;53.022;-1.178;2022-10-15T00:22:53;99682.74;;;8.59;100.00
57290;BME280;43523;53.022;-1.178;2022-10-15T00:23:57;99684.80;;;9.05;100.00
57290;BME280;43523;53.022;-1.178;2022-10-15T00:24:59;99685.95;;;8.36;100.00
57290;BME280;43523;53.022;-1.178;2022-10-15T00:26:04;99682.73;;;7.95;100.00
57290;BME280;43523;53.022;-1.178;2022-10-15T00:27:07;99681.31;;;8.52;100.00
57290;BME280;43523;53.022;-1.178;2022-10-15T00:28:09;99678.34;;;8.38;100.00
57290;BME280;43523;53.022;-1.178;2022-10-15T00:29:11;99675.10;;;8.02;100.00
57290;BME280;43523;53.022;-1.178;2022-10-15T00:30:14;99672.53;;;8.56;100.00
57290;BME280;43523;53.022;-1.178;2022-10-15T00:31:17;99670.44;;;8.05;100.00
57290;BME280;43523;53.022;-1.178;2022-10-15T00:32:21;99667.11;;;8.46;100.00
57290;BME280;43523;53.022;-1.178;2022-10-15T00:33:23;99659.96;;;8.49;100.00
57290;BME280;43523;53.022;-1.178;2022-10-15T00:34:26;99662.10;;;8.38;100.00
57290;BME280;43523;53.022;-1.178;2022-10-15T00:35:27;99663.81;;;9.23;100.00
57290;BME280;43523;53.022;-1.178;2022-10-15T00:36:32;99664.32;;;8.61;100.00
57290;BME280;43523;53.022;-1.178;2022-10-15T00:37:34;99660.45;;;8.29;100.00
57290;BME280;43523;53.022;-1.178;2022-10-15T00:38:36;99658.60;;;8.67;100.00
57290;BME280;43523;53.022;-1.178;2022-10-15T00:39:40;99656.92;;;8.62;100.00
57290;BME280;43523;53.022;-1.178;2022-10-15T00:40:41;99657.24;;;8.01;100.00
57290;BME280;43523;53.022;-1.178;2022-10-15T00:41:44;99655.62;;;8.09;100.00
57290;BME280;43523;53.022;-1.178;2022-10-15T00:42:47;99653.31;;;8.86;100.00
57290;BME280;43523;53.022;-1.178;2022-10-15T00:43:51;99649.34;;;8.79;100.00
57290;BME280;43523;53.022;-1.178;2022-10-15T00:44:56;99648.46;;;8.51;100.00
57290;BME280;43523;53.022;-1.178;2022-10-15T00:45:58;99645.12;;;9.19;100.00
57290;BME280;43523;53.022;-1.178;2022-10-15T00:47:05;99638.16;;;9.05;100.00
57290;BME280;43523;53.022;-1.178;2022-10-15T00:48:10;99635.44;;;8.42;100.00
57290;BME280;43523;53.022;-1.178;2022-10-15T00:49:17;99631.25;;;8.73;100.00
57290;BME280;43523;53.022;-1.178;2022-10-15T00:50:24;99624.53;;;8.55;100.00
57290;BME280;43523;53.022;-1.178;2022-10-15T00:51:32;99623.60;;;8.28;100.00
57290;BME280;43523;53.022;-1.178;2022-10-15T00:52:41;99620.30;;;7.95;100.00
57290;BME280;43523;53.022;-1.178;2022-10-15T00:53:47;99616.70;;;8.27;100.00
57290;BME280;43523;53.022;-1.178;2022-10-15T00:54:53;99616.73;;;8.20;100.00
57290;BME280;43523;53.022;-1.178;2022-10-15T00:55:58;99614.95;;;8.26;100.00
57290;BME280;43523;53.022;-1.178;2022-10-15T00:57:02;99613.28;;;8.08;100.00
57290;BME280;43523;53.022;-1.178;2022-10-15T00:58:09;99612.83;;;8.29;100.00
57290;BME280;43523;53.022;-1.178;2022-10-15T00:59:13;99609.90;;;8.75;100.00
57290;BME280;43523;53.022;-1.178;2022-10-15T01:00:18;99608.81;;;8.45;100.00
57290;BME280;43523;53.022;-1.178;2022-10-15T01:01:20;99608.37;;;9.01;100.00
57290;BME280;43523;53.022;-1.178;2022-10-15T01:02:22;99608.25;;;9.08;100.00
57290;BME280;43523;53.022;-1.178;2022-10-15T01:03:24;99606.41;;;9.07;100.00
57290;BME280;43523;53.022;-1.178;2022-10-15T01:04:27;99605.87;;;8.92;100.00
57290;BME280;43523;53.022;-1.178;2022-10-15T01:05:32;99607.47;;;8.89;100.00
57290;BME280;43523;53.022;-1.178;2022-10-15T01:06:36;99605.08;;;8.57;100.00
57290;BME280;43523;53.022;-1.178;2022-10-15T01:07:39;99603.04;;;8.33;100.00
57290;BME280;43523;53.022;-1.178;2022-10-15T01:08:41;99604.20;;;8.76;100.00
57290;BME280;43523;53.022;-1.178;2022-10-15T01:09:44;99603.75;;;8.36;100.00
57290;BME280;43523;53.022;-1.178;2022-10-15T01:10:52;99602.16;;;8.47;100.00
57290;BME280;43523;53.022;-1.178;2022-10-15T01:11:59;99600.87;;;8.47;100.00
57290;BME280;43523;53.022;-1.178;2022-10-15T01:13:08;99599.52;;;8.15;100.00
57290;BME280;43523;53.022;-1.178;2022-10-15T01:14:27;99597.64;;;7.96;100.00
57290;BME280;43523;53.022;-1.178;2022-10-15T01:15:37;99593.80;;;8.06;100.00
57290;BME280;43523;53.022;-1.178;2022-10-15T01:16:45;99592.68;;;8.17;100.00
57290;BME280;43523;53.022;-1.178;2022-10-15T01:17:54;99591.12;;;8.48;100.00
57290;BME280;43523;53.022;-1.178;2022-10-15T01:19:01;99593.76;;;7.94;100.00
57290;BME280;43523;53.022;-1.178;2022-10-15T01:20:22;99592.30;;;7.82;100.00
57290;BME280;43523;53.022;-1.178;2022-10-15T01:21:31;99590.99;;;7.88;100.00
57290;BME280;43523;53.022;-1.178;2022-10-15T01:22:43;99588.87;;;8.17;100.00
57290;BME280;43523;53.022;-1.178;2022-10-15T01:25:16;99588.53;;;7.84;100.00
57290;BME280;43523;53.022;-1.178;2022-10-15T01:27:10;99582.30;;;7.73;100.00
57290;BME280;43523;53.022;-1.178;2022-10-15T01:28:27;99582.21;;;8.18;100.00
57290;BME280;43523;53.022;-1.178;2022-10-15T01:30:03;99577.99;;;8.17;100.00
57290;BME280;43523;53.022;-1.178;2022-10-15T01:31:13;99579.18;;;8.17;100.00
57290;BME280;43523;53.022;-1.178;2022-10-15T01:32:24;99576.50;;;8.61;100.00
57290;BME280;43523;53.022;-1.178;2022-10-15T01:33:34;99573.43;;;8.22;100.00
57290;BME280;43523;53.022;-1.178;2022-10-15T01:34:43;99570.69;;;8.35;100.00
57290;BME280;43523;53.022;-1.178;2022-10-15T01:35:50;99570.24;;;8.51;100.00
57290;BME280;43523;53.022;-1.178;2022-10-15T01:36:57;99564.86;;;8.45;100.00
57290;BME280;43523;53.022;-1.178;2022-10-15T01:38:09;99562.67;;;8.13;100.00
57290;BME280;43523;53.022;-1.178;2022-10-15T01:39:17;99561.21;;;7.71;100.00
57290;BME280;43523;53.022;-1.178;2022-10-15T01:40:27;99557.99;;;7.84;100.00
57290;BME280;43523;53.022;-1.178;2022-10-15T01:41:38;99557.26;;;7.10;100.00
57290;BME280;43523;53.022;-1.178;2022-10-15T01:42:49;99554.18;;;8.41;100.00
57290;BME280;43523;53.022;-1.178;2022-10-15T01:43:58;99551.88;;;8.19;100.00
57290;BME280;43523;53.022;-1.178;2022-10-15T01:45:09;99545.65;;;8.39;100.00
57290;BME280;43523;53.022;-1.178;2022-10-15T01:46:17;99548.17;;;8.39;100.00
57290;BME280;43523;53.022;-1.178;2022-10-15T01:47:28;99544.27;;;8.60;100.00
57290;BME280;43523;53.022;-1.178;2022-10-15T01:48:33;99533.99;;;8.20;100.00
57290;BME280;43523;53.022;-1.178;2022-10-15T01:49:40;99528.96;;;8.61;100.00
57290;BME280;43523;53.022;-1.178;2022-10-15T01:50:47;99527.01;;;7.78;100.00
57290;BME280;43523;53.022;-1.178;2022-10-15T01:51:53;99524.10;;;7.60;100.00
57290;BME280;43523;53.022;-1.178;2022-10-15T01:52:58;99523.43;;;7.77;100.00
57290;BME280;43523;53.022;-1.178;2022-10-15T01:54:05;99520.21;;;8.04;100.00
57290;BME280;43523;53.022;-1.178;2022-10-15T01:55:13;99517.61;;;7.98;100.00
57290;BME280;43523;53.022;-1.178;2022-10-15T01:56:19;99516.75;;;7.81;100.00
57290;BME280;43523;53.022;-1.178;2022-10-15T01:57:24;99515.61;;;8.35;100.00
57290;BME280;43523;53.022;-1.178;2022-10-15T01:58:29;99513.25;;;8.51;100.00
57290;BME280;43523;53.022;-1.178;2022-10-15T01:59:34;99511.37;;;8.30;100.00
57290;BME280;43523;53.022;-1.178;2022-10-15T02:00:37;99504.83;;;8.05;100.00
57290;BME280;43523;53.022;-1.178;2022-10-15T02:01:42;99499.36;;;8.29;100.00
57290;BME280;43523;53.022;-1.178;2022-10-15T02:02:46;99491.15;;;8.03;100.00
57290;BME280;43523;53.022;-1.178;2022-10-15T02:03:49;99486.86;;;7.90;100.00
57290;BME280;43523;53.022;-1.178;2022-10-15T02:04:52;99487.14;;;7.97;100.00
57290;BME280;43523;53.022;-1.178;2022-10-15T02:05:58;99486.80;;;7.68;100.00
57290;BME280;43523;53.022;-1.178;2022-10-15T02:07:05;99484.99;;;7.81;100.00
57290;BME280;43523;53.022;-1.178;2022-10-15T02:08:16;99486.43;;;7.88;100.00
57290;BME280;43523;53.022;-1.178;2022-10-15T02:09:28;99483.65;;;8.48;100.00
57290;BME280;43523;53.022;-1.178;2022-10-15T02:10:41;99484.98;;;7.82;100.00
57290;BME280;43523;53.022;-1.178;2022-10-15T02:11:53;99480.66;;;8.44;100.00
57290;BME280;43523;53.022;-1.178;2022-10-15T02:13:11;99475.91;;;7.97;100.00
57290;BME280;43523;53.022;-1.178;2022-10-15T02:14:19;99472.89;;;7.86;100.00
57290;BME280;43523;53.022;-1.178;2022-10-15T02:15:33;99470.27;;;7.89;100.00
57290;BME280;43523;53.022;-1.178;2022-10-15T02:16:42;99471.08;;;7.87;100.00
57290;BME280;43523;53.022;-1.178;2022-10-15T02:17:54;99472.29;;;8.37;100.00
57290;BME280;43523;53.022;-1.178;2022-10-15T02:19:04;99466.75;;;8.05;100.00
57290;BME280;43523;53.022;-1.178;2022-10-15T02:20:13;99463.72;;;8.08;100.00
57290;BME280;43523;53.022;-1.178;2022-10-15T02:21:20;99463.18;;;8.29;100.00
57290;BME280;43523;53.022;-1.178;2022-10-15T02:22:25;99460.98;;;8.17;100.00
57290;BME280;43523;53.022;-1.178;2022-10-15T02:23:38;99464.64;;;7.90;100.00
57290;BME280;43523;53.022;-1.178;2022-10-15T02:24:48;99459.48;;;8.38;100.00
57290;BME280;43523;53.022;-1.178;2022-10-15T02:25:54;99462.82;;;8.28;100.00
57290;BME280;43523;53.022;-1.178;2022-10-15T02:26:58;99467.78;;;7.95;100.00
57290;BME280;43523;53.022;-1.178;2022-10-15T02:28:03;99464.56;;;7.07;100.00
57290;BME280;43523;53.022;-1.178;2022-10-15T02:29:09;99460.67;;;8.06;100.00
57290;BME280;43523;53.022;-1.178;2022-10-15T02:30:13;99455.56;;;8.08;100.00
57290;BME280;43523;53.022;-1.178;2022-10-15T02:31:17;99451.85;;;7.89;100.00
57290;BME280;43523;53.022;-1.178;2022-10-15T02:32:21;99448.94;;;7.86;100.00
57290;BME280;43523;53.022;-1.178;2022-10-15T02:33:25;99444.82;;;7.67;100.00
57290;BME280;43523;53.022;-1.178;2022-10-15T02:34:30;99441.66;;;8.11;100.00
57290;BME280;43523;53.022;-1.178;2022-10-15T02:35:34;99440.09;;;7.95;100.00
57290;BME280;43523;53.022;-1.178;2022-10-15T02:36:38;99437.50;;;8.00;100.00
57290;BME280;43523;53.022;-1.178;2022-10-15T02:37:43;99433.01;;;8.41;100.00
57290;BME280;43523;53.022;-1.178;2022-10-15T02:38:50;99435.38;;;8.32;100.00
57290;BME280;43523;53.022;-1.178;2022-10-15T02:39:54;99440.46;;;8.20;100.00
57290;BME280;43523;53.022;-1.178;2022-10-15T02:40:56;99440.31;;;8.20;100.00
57290;BME280;43523;53.022;-1.178;2022-10-15T02:41:59;99437.50;;;7.32;100.00
57290;BME280;43523;53.022;-1.178;2022-10-15T02:43:05;99434.80;;;7.93;100.00
57290;BME280;43523;53.022;-1.178;2022-10-15T02:44:10;99427.90;;;7.61;100.00
57290;BME280;43523;53.022;-1.178;2022-10-15T02:45:12;99422.61;;;8.26;100.00
57290;BME280;43523;53.022;-1.178;2022-10-15T02:46:15;99417.33;;;7.81;100.00
57290;BME280;43523;53.022;-1.178;2022-10-15T02:47:18;99409.18;;;8.18;100.00
57290;BME280;43523;53.022;-1.178;2022-10-15T02:48:21;99404.82;;;8.25;100.00
57290;BME280;43523;53.022;-1.178;2022-10-15T02:49:23;99408.23;;;8.13;100.00
57290;BME280;43523;53.022;-1.178;2022-10-15T02:50:26;99412.56;;;7.66;100.00
57290;BME280;43523;53.022;-1.178;2022-10-15T02:51:31;99404.55;;;8.36;100.00
57290;BME280;43523;53.022;-1.178;2022-10-15T02:52:33;99404.36;;;8.25;100.00
57290;BME280;43523;53.022;-1.178;2022-10-15T02:53:36;99404.15;;;8.39;100.00
57290;BME280;43523;53.022;-1.178;2022-10-15T02:54:38;99406.14;;;8.45;100.00
57290;BME280;43523;53.022;-1.178;2022-10-15T02:55:40;99415.76;;;8.01;100.00
57290;BME280;43523;53.022;-1.178;2022-10-15T02:56:42;99409.66;;;8.29;100.00
57290;BME280;43523;53.022;-1.178;2022-10-15T02:57:46;99408.48;;;8.17;100.00
57290;BME280;43523;53.022;-1.178;2022-10-15T02:58:48;99409.28;;;8.52;100.00
57290;BME280;43523;53.022;-1.178;2022-10-15T02:59:50;99417.40;;;7.59;100.00
57290;BME280;43523;53.022;-1.178;2022-10-15T03:00:53;99407.13;;;8.33;100.00
57290;BME280;43523;53.022;-1.178;2022-10-15T03:01:56;99404.37;;;8.47;100.00
57290;BME280;43523;53.022;-1.178;2022-10-15T03:02:59;99408.24;;;8.40;100.00
57290;BME280;43523;53.022;-1.178;2022-10-15T03:04:01;99405.81;;;8.41;100.00
57290;BME280;43523;53.022;-1.178;2022-10-15T03:05:04;99400.54;;;8.41;100.00
57290;BME280;43523;53.022;-1.178;2022-10-15T03:06:08;99399.55;;;8.70;100.00
57290;BME280;43523;53.022;-1.178;2022-10-15T03:07:10;99409.16;;;8.11;100.00
57290;BME280;43523;53.022;-1.178;2022-10-15T03:08:12;99403.34;;;8.25;100.00
57290;BME280;43523;53.022;-1.178;2022-10-15T03:09:14;99392.41;;;8.15;100.00
57290;BME280;43523;53.022;-1.178;2022-10-15T03:10:17;99393.33;;;7.72;100.00
57290;BME280;43523;53.022;-1.178;2022-10-15T03:11:19;99391.29;;;8.09;100.00
57290;BME280;43523;53.022;-1.178;2022-10-15T03:12:22;99388.39;;;8.22;100.00
57290;BME280;43523;53.022;-1.178;2022-10-15T03:13:25;99388.14;;;8.31;100.00
57290;BME280;43523;53.022;-1.178;2022-10-15T03:14:28;99384.21;;;8.30;100.00
57290;BME280;43523;53.022;-1.178;2022-10-15T03:15:31;99385.87;;;8.14;100.00
57290;BME280;43523;53.022;-1.178;2022-10-15T03:16:33;99382.59;;;8.15;100.00
57290;BME280;43523;53.022;-1.178;2022-10-15T03:17:36;99375.86;;;8.32;100.00
57290;BME280;43523;53.022;-1.178;2022-10-15T03:18:38;99368.47;;;8.47;100.00
57290;BME280;43523;53.022;-1.178;2022-10-15T03:19:40;99360.79;;;7.97;100.00
57290;BME280;43523;53.022;-1.178;2022-10-15T03:20:43;99360.64;;;7.13;100.00
57290;BME280;43523;53.022;-1.178;2022-10-15T03:21:45;99362.35;;;7.69;100.00
57290;BME280;43523;53.022;-1.178;2022-10-15T03:22:48;99355.71;;;7.96;100.00
57290;BME280;43523;53.022;-1.178;2022-10-15T03:23:50;99359.13;;;7.63;100.00
57290;BME280;43523;53.022;-1.178;2022-10-15T03:24:52;99351.22;;;7.88;100.00
57290;BME280;43523;53.022;-1.178;2022-10-15T03:25:55;99349.79;;;8.44;100.00
57290;BME280;43523;53.022;-1.178;2022-10-15T03:26:57;99346.37;;;8.12;100.00
57290;BME280;43523;53.022;-1.178;2022-10-15T03:27:59;99341.32;;;8.27;100.00
57290;BME280;43523;53.022;-1.178;2022-10-15T03:29:02;99341.15;;;8.22;100.00
57290;BME280;43523;53.022;-1.178;2022-10-15T03:30:05;99340.95;;;7.91;100.00
57290;BME280;43523;53.022;-1.178;2022-10-15T03:31:07;99340.69;;;7.87;100.00
57290;BME280;43523;53.022;-1.178;2022-10-15T03:32:10;99338.57;;;7.65;100.00
57290;BME280;43523;53.022;-1.178;2022-10-15T03:33:12;99337.29;;;8.01;100.00
57290;BME280;43523;53.022;-1.178;2022-10-15T03:34:15;99343.28;;;8.03;100.00
57290;BME280;43523;53.022;-1.178;2022-10-15T03:35:17;99340.12;;;8.06;100.00
57290;BME280;43523;53.022;-1.178;2022-10-15T03:36:19;99330.51;;;8.18;100.00
57290;BME280;43523;53.022;-1.178;2022-10-15T03:37:22;99326.95;;;7.80;100.00
57290;BME280;43523;53.022;-1.178;2022-10-15T03:38:24;99327.73;;;7.95;100.00
57290;BME280;43523;53.022;-1.178;2022-10-15T03:39:27;99328.43;;;8.40;100.00
57290;BME280;43523;53.022;-1.178;2022-10-15T03:40:29;99322.90;;;7.77;100.00
57290;BME280;43523;53.022;-1.178;2022-10-15T03:41:33;99318.76;;;7.86;100.00
57290;BME280;43523;53.022;-1.178;2022-10-15T03:42:35;99314.16;;;7.56;100.00
57290;BME280;43523;53.022;-1.178;2022-10-15T03:43:38;99304.09;;;7.69;100.00
57290;BME280;43523;53.022;-1.178;2022-10-15T03:44:41;99303.05;;;7.18;100.00
57290;BME280;43523;53.022;-1.178;2022-10-15T03:45:43;99296.76;;;7.31;100.00
57290;BME280;43523;53.022;-1.178;2022-10-15T03:46:46;99296.43;;;6.53;100.00
57290;BME280;43523;53.022;-1.178;2022-10-15T03:47:49;99294.80;;;6.61;100.00
57290;BME280;43523;53.022;-1.178;2022-10-15T03:48:51;99294.63;;;6.61;100.00
57290;BME280;43523;53.022;-1.178;2022-10-15T03:49:53;99291.92;;;6.98;100.00
57290;BME280;43523;53.022;-1.178;2022-10-15T03:50:56;99289.50;;;7.05;100.00
57290;BME280;43523;53.022;-1.178;2022-10-15T03:51:58;99285.17;;;7.22;100.00
57290;BME280;43523;53.022;-1.178;2022-10-15T03:53:02;99280.51;;;7.16;100.00
57290;BME280;43523;53.022;-1.178;2022-10-15T03:54:05;99279.16;;;6.69;100.00
57290;BME280;43523;53.022;-1.178;2022-10-15T03:55:08;99276.69;;;6.93;100.00
57290;BME280;43523;53.022;-1.178;2022-10-15T03:56:11;99275.85;;;6.67;100.00
57290;BME280;43523;53.022;-1.178;2022-10-15T03:57:14;99272.17;;;6.92;100.00
57290;BME280;43523;53.022;-1.178;2022-10-15T03:58:16;99271.56;;;7.28;100.00
57290;BME280;43523;53.022;-1.178;2022-10-15T03:59:19;99267.68;;;6.80;100.00
57290;BME280;43523;53.022;-1.178;2022-10-15T04:00:21;99262.09;;;7.33;100.00
57290;BME280;43523;53.022;-1.178;2022-10-15T04:01:23;99267.43;;;7.20;100.00
57290;BME280;43523;53.022;-1.178;2022-10-15T04:02:26;99265.71;;;6.72;100.00
57290;BME280;43523;53.022;-1.178;2022-10-15T04:03:28;99262.48;;;6.50;100.00
57290;BME280;43523;53.022;-1.178;2022-10-15T04:04:31;99268.13;;;6.91;100.00
57290;BME280;43523;53.022;-1.178;2022-10-15T04:05:33;99263.81;;;6.84;100.00
57290;BME280;43523;53.022;-1.178;2022-10-15T04:06:36;99260.89;;;7.16;100.00
57290;BME280;43523;53.022;-1.178;2022-10-15T04:07:38;99263.39;;;7.30;100.00
57290;BME280;43523;53.022;-1.178;2022-10-15T04:08:41;99264.75;;;7.55;100.00
57290;BME280;43523;53.022;-1.178;2022-10-15T04:09:43;99264.47;;;7.16;100.00
57290;BME280;43523;53.022;-1.178;2022-10-15T04:10:47;99263.79;;;7.65;100.00
57290;BME280;43523;53.022;-1.178;2022-10-15T04:11:49;99269.96;;;7.54;100.00
57290;BME280;43523;53.022;-1.178;2022-10-15T04:12:52;99271.73;;;7.06;100.00
57290;BME280;43523;53.022;-1.178;2022-10-15T04:13:54;99271.50;;;6.74;100.00
57290;BME280;43523;53.022;-1.178;2022-10-15T04:14:56;99262.89;;;7.09;100.00
57290;BME280;43523;53.022;-1.178;2022-10-15T04:15:59;99258.73;;;7.23;100.00
57290;BME280;43523;53.022;-1.178;2022-10-15T04:17:01;99250.89;;;7.60;100.00
57290;BME280;43523;53.022;-1.178;2022-10-15T04:18:03;99259.59;;;7.14;100.00
57290;BME280;43523;53.022;-1.178;2022-10-15T04:19:06;99253.37;;;7.22;100.00
57290;BME280;43523;53.022;-1.178;2022-10-15T04:20:09;99255.65;;;7.24;100.00
57290;BME280;43523;53.022;-1.178;2022-10-15T04:21:11;99259.05;;;7.49;100.00
57290;BME280;43523;53.022;-1.178;2022-10-15T04:22:14;99256.69;;;6.98;100.00
57290;BME280;43523;53.022;-1.178;2022-10-15T04:23:17;99260.10;;;7.03;100.00
57290;BME280;43523;53.022;-1.178;2022-10-15T04:24:19;99256.70;;;6.54;100.00
57290;BME280;43523;53.022;-1.178;2022-10-15T04:25:21;99261.48;;;6.20;100.00
57290;BME280;43523;53.022;-1.178;2022-10-15T04:26:24;99257.93;;;6.41;100.00
57290;BME280;43523;53.022;-1.178;2022-10-15T04:27:26;99257.34;;;6.71;100.00
57290;BME280;43523;53.022;-1.178;2022-10-15T04:28:29;99257.80;;;6.72;100.00
57290;BME280;43523;53.022;-1.178;2022-10-15T04:29:32;99249.64;;;6.43;100.00
57290;BME280;43523;53.022;-1.178;2022-10-15T04:30:35;99244.95;;;6.22;100.00
57290;BME280;43523;53.022;-1.178;2022-10-15T04:31:37;99242.81;;;5.99;100.00
57290;BME280;43523;53.022;-1.178;2022-10-15T04:32:39;99242.51;;;6.53;100.00
57290;BME280;43523;53.022;-1.178;2022-10-15T04:33:41;99241.99;;;6.91;100.00
57290;BME280;43523;53.022;-1.178;2022-10-15T04:34:43;99244.50;;;7.10;100.00
57290;BME280;43523;53.022;-1.178;2022-10-15T04:35:46;99244.38;;;6.55;100.00
57290;BME280;43523;53.022;-1.178;2022-10-15T04:36:49;99243.59;;;6.29;100.00
57290;BME280;43523;53.022;-1.178;2022-10-15T04:37:51;99244.10;;;6.72;100.00
57290;BME280;43523;53.022;-1.178;2022-10-15T04:38:54;99236.74;;;6.80;100.00
57290;BME280;43523;53.022;-1.178;2022-10-15T04:39:56;99237.41;;;6.91;100.00
57290;BME280;43523;53.022;-1.178;2022-10-15T04:41:00;99242.72;;;6.48;100.00
57290;BME280;43523;53.022;-1.178;2022-10-15T04:42:03;99232.33;;;6.72;100.00
57290;BME280;43523;53.022;-1.178;2022-10-15T04:43:05;99232.09;;;6.40;100.00
57290;BME280;43523;53.022;-1.178;2022-10-15T04:44:07;99229.81;;;6.46;100.00
57290;BME280;43523;53.022;-1.178;2022-10-15T04:45:10;99229.07;;;6.89;100.00
57290;BME280;43523;53.022;-1.178;2022-10-15T04:46:13;99233.85;;;7.01;100.00
57290;BME280;43523;53.022;-1.178;2022-10-15T04:47:15;99234.14;;;6.41;100.00
57290;BME280;43523;53.022;-1.178;2022-10-15T04:48:17;99229.38;;;6.72;100.00
57290;BME280;43523;53.022;-1.178;2022-10-15T04:49:20;99230.08;;;6.38;100.00
57290;BME280;43523;53.022;-1.178;2022-10-15T04:50:22;99228.95;;;6.55;100.00
57290;BME280;43523;53.022;-1.178;2022-10-15T04:51:25;99222.56;;;6.55;100.00
57290;BME280;43523;53.022;-1.178;2022-10-15T04:52:27;99225.04;;;6.89;100.00
57290;BME280;43523;53.022;-1.178;2022-10-15T04:53:30;99223.84;;;6.77;100.00
57290;BME280;43523;53.022;-1.178;2022-10-15T04:54:33;99215.21;;;6.87;100.00
57290;BME280;43523;53.022;-1.178;2022-10-15T04:55:35;99221.14;;;6.97;100.00
57290;BME280;43523;53.022;-1.178;2022-10-15T04:56:38;99215.96;;;6.73;100.00
57290;BME280;43523;53.022;-1.178;2022-10-15T04:57:40;99213.58;;;6.73;100.00
57290;BME280;43523;53.022;-1.178;2022-10-15T04:58:44;99209.55;;;6.60;100.00
57290;BME280;43523;53.022;-1.178;2022-10-15T04:59:47;99211.50;;;6.38;100.00
57290;BME280;43523;53.022;-1.178;2022-10-15T05:00:50;99213.18;;;6.94;100.00
57290;BME280;43523;53.022;-1.178;2022-10-15T05:01:52;99211.44;;;6.76;100.00
57290;BME280;43523;53.022;-1.178;2022-10-15T05:02:54;99211.99;;;6.81;100.00
57290;BME280;43523;53.022;-1.178;2022-10-15T05:03:57;99207.40;;;7.55;100.00
57290;BME280;43523;53.022;-1.178;2022-10-15T05:04:59;99209.05;;;6.69;100.00
57290;BME280;43523;53.022;-1.178;2022-10-15T05:06:03;99205.58;;;6.37;100.00
57290;BME280;43523;53.022;-1.178;2022-10-15T05:07:06;99209.00;;;7.04;100.00
57290;BME280;43523;53.022;-1.178;2022-10-15T05:08:08;99211.23;;;6.48;100.00
57290;BME280;43523;53.022;-1.178;2022-10-15T05:09:11;99204.89;;;7.29;100.00
57290;BME280;43523;53.022;-1.178;2022-10-15T05:10:14;99214.77;;;7.21;100.00
57290;BME280;43523;53.022;-1.178;2022-10-15T05:11:18;99219.63;;;7.05;100.00
57290;BME280;43523;53.022;-1.178;2022-10-15T05:12:21;99220.83;;;7.00;100.00
57290;BME280;43523;53.022;-1.178;2022-10-15T05:13:23;99217.12;;;6.83;100.00
57290;BME280;43523;53.022;-1.178;2022-10-15T05:14:25;99211.25;;;7.20;100.00
57290;BME280;43523;53.022;-1.178;2022-10-15T05:15:28;99211.96;;;6.99;100.00
57290;BME280;43523;53.022;-1.178;2022-10-15T05:16:32;99211.04;;;6.77;100.00
57290;BME280;43523;53.022;-1.178;2022-10-15T05:17:34;99209.69;;;6.72;100.00
57290;BME280;43523;53.022;-1.178;2022-10-15T05:18:37;99212.43;;;6.62;100.00
57290;BME280;43523;53.022;-1.178;2022-10-15T05:19:40;99212.23;;;6.97;100.00
57290;BME280;43523;53.022;-1.178;2022-10-15T05:20:42;99213.58;;;7.13;100.00
57290;BME280;43523;53.022;-1.178;2022-10-15T05:21:44;99215.77;;;7.06;100.00
57290;BME280;43523;53.022;-1.178;2022-10-15T05:22:47;99213.05;;;6.87;100.00
57290;BME280;43523;53.022;-1.178;2022-10-15T05:23:49;99214.76;;;6.90;100.00
57290;BME280;43523;53.022;-1.178;2022-10-15T05:24:51;99209.07;;;6.95;100.00
57290;BME280;43523;53.022;-1.178;2022-10-15T05:25:53;99211.37;;;7.20;100.00
57290;BME280;43523;53.022;-1.178;2022-10-15T05:26:56;99213.06;;;7.00;100.00
57290;BME280;43523;53.022;-1.178;2022-10-15T05:27:58;99216.02;;;6.74;100.00
57290;BME280;43523;53.022;-1.178;2022-10-15T05:29:01;99213.75;;;6.77;100.00
57290;BME280;43523;53.022;-1.178;2022-10-15T05:30:04;99211.04;;;6.85;100.00
57290;BME280;43523;53.022;-1.178;2022-10-15T05:31:08;99213.14;;;6.59;100.00
57290;BME280;43523;53.022;-1.178;2022-10-15T05:32:12;99212.67;;;6.50;100.00
57290;BME280;43523;53.022;-1.178;2022-10-15T05:33:15;99211.83;;;6.60;100.00
57290;BME280;43523;53.022;-1.178;2022-10-15T05:34:17;99210.09;;;6.95;100.00
57290;BME280;43523;53.022;-1.178;2022-10-15T05:35:19;99214.90;;;6.97;100.00
57290;BME280;43523;53.022;-1.178;2022-10-15T05:36:23;99213.37;;;7.08;100.00
57290;BME280;43523;53.022;-1.178;2022-10-15T05:37:26;99218.20;;;6.52;100.00
57290;BME280;43523;53.022;-1.178;2022-10-15T05:38:29;99212.71;;;7.03;100.00